Flight Track Log - Related Links

Times and Time Zones

All times are in EDT time to prevent confusion due to time zone crossing. See the N319TB flight status page for this flight to view local times or setup timezone preferences in your user account.

Time Position Orientation Groundspeed Altitude Reporting Facility
EDT Latitude Longitude Course Direction KTS MPH feet Rate Location/Type
Fri 07:27:15 PM 33.8667 -84.2500 90° East 159 183 2,600  Level Atlanta TRACON
Fri 07:28:09 PM 33.8667 -84.2000 90° East 191 220 3,500 1,483 Climbing Atlanta TRACON
Fri 07:30:09 PM 33.8500 -84.1000 101° East 164 189 6,900 1,593 Climbing Atlanta TRACON
Fri 07:31:06 PM 33.8631 -84.0489 73° East 166 191 8,200 1,077 Climbing Atlanta Center
Fri 07:32:06 PM 33.8736 -83.9914 78° East 182 209 9,000 400 Climbing Atlanta Center
Fri 07:33:06 PM 33.8944 -83.9161 72° East 204 235 9,000 450 Level Atlanta Center
Fri 07:34:06 PM 33.9089 -83.8436 76° East 230 265 9,900 1,000 Climbing Atlanta Center
Fri 07:35:06 PM 33.9214 -83.7758 77° East 217 250 11,000 550 Climbing Atlanta Center
Fri 07:36:06 PM 33.9378 -83.7008 75° East 218 251 11,000  Level Atlanta Center
Fri 07:37:06 PM 33.9542 -83.6181 77° East 241 277 11,000  Level Atlanta Center
Fri 07:38:06 PM 33.9706 -83.5428 75° East 247 284 11,000 850 Level Atlanta Center
Fri 07:39:06 PM 33.9850 -83.4650 77° East 247 284 12,700 1,350 Climbing Atlanta Center
Fri 07:40:06 PM 33.9992 -83.4022 75° East 207 238 13,700 1,000 Climbing Atlanta Center
Fri 07:41:06 PM 34.0114 -83.3347 78° East 200 230 14,700 650 Climbing Atlanta Center
Fri 07:42:06 PM 34.0256 -83.2619 77° East 209 241 15,000 900 Climbing Atlanta Center
Fri 07:43:06 PM 34.0375 -83.1939 78° East 209 241 16,500 1,000 Climbing Atlanta Center
Fri 07:44:06 PM 34.0539 -83.1236 74° East 209 241 17,000 250 Climbing Atlanta Center
Fri 07:45:06 PM 34.0719 -83.0381 76° East 222 255 17,000  Level Atlanta Center
Fri 07:46:06 PM 34.0900 -82.9478 76° East 253 291 17,000 -100 Level Atlanta Center
Fri 07:47:06 PM 34.1081 -82.8647 75° East 258 297 16,800 -450 Descending Atlanta Center
Fri 07:48:06 PM 34.1258 -82.7692 77° East 275 316 16,100 -500 Descending Atlanta Center
Fri 07:49:06 PM 34.1458 -82.6783 75° East 280 322 15,800 -350 Descending Atlanta Center
Fri 07:50:06 PM 34.1675 -82.5850 74° East 280 322 15,400 -500 Descending Atlanta Center
Fri 07:51:06 PM 34.1833 -82.4969 78° East 280 322 14,800 -600 Descending Atlanta Center
Fri 07:52:06 PM 34.2008 -82.4189 75° East 263 303 14,200 -600 Descending Atlanta Center
Fri 07:53:06 PM 34.2125 -82.3433 79° East 236 272 13,600 -650 Descending Atlanta Center
Fri 07:54:06 PM 34.2281 -82.2650 76° East 236 272 12,900 -650 Descending Atlanta Center
Fri 07:55:06 PM 34.2456 -82.1792 76° East 241 277 12,300 -850 Descending Atlanta Center
Fri 07:56:06 PM 34.2883 -82.1103 53° Northeast 248 285 11,200 -650 Descending Atlanta Center
Fri 07:57:06 PM 34.3353 -82.0414 50° Northeast 254 292 11,000 -100 Descending Atlanta Center
Fri 07:58:06 PM 34.3886 -81.9847 41° Northeast 249 287 11,000  Level Atlanta Center
Fri 07:59:06 PM 34.4333 -81.9233 49° Northeast 243 280 11,000  Level Atlanta Center
Fri 08:00:06 PM 34.4806 -81.8667 45° Northeast 243 280 11,000  Level Atlanta Center
Fri 08:01:06 PM 34.5233 -81.8125 46° Northeast 226 260 11,000  Level Atlanta Center
Fri 08:02:06 PM 34.5681 -81.7508 49° Northeast 226 260 11,000  Level Atlanta Center
Fri 08:02:39 PM 34.5947 -81.7172 46° Northeast 257 296 11,000  Level Atlanta Center
Fri 08:03:40 PM 34.6497 -81.6553 43° Northeast 255 293 11,000  Level Atlanta Center
Fri 08:04:35 PM 34.6883 -81.6036 48° Northeast 250 288 11,000  Level Atlanta Center
Fri 08:05:06 PM 34.7128 -81.5750 44° Northeast 246 283 11,000  Level Atlanta Center
Fri 08:05:41 PM 34.7411 -81.5339 50° Northeast 245 282 11,000  Level Atlanta Center
Fri 08:06:42 PM 34.7900 -81.4717 46° Northeast 246 283 11,000  Level Atlanta Center
Fri 08:07:49 PM 34.8428 -81.4017 47° Northeast 247 284 11,000  Level Atlanta Center
Fri 08:08:50 PM 34.8894 -81.3419 46° Northeast 248 285 11,000  Level Atlanta Center
Fri 08:09:45 PM 34.9342 -81.2847 46° Northeast 249 287 11,000  Level Atlanta Center
Fri 08:10:51 PM 34.9869 -81.2169 46° Northeast 256 295 11,000 -94 Level Atlanta Center
Fri 08:11:53 PM 35.0375 -81.1519 46° Northeast 262 302 10,800 -328 Descending Atlanta Center
Fri 08:12:59 PM 35.0942 -81.0789 47° Northeast 262 302 10,300 -425 Descending Atlanta Center
Fri 08:14:00 PM 35.1469 -81.0161 44° Northeast 259 298 9,900 -375 Descending Atlanta Center
Fri 08:15:07 PM 35.2014 -80.9428 48° Northeast 260 299 9,500 -443 Descending Atlanta Center
Fri 08:16:02 PM 35.2439 -80.8931 44° Northeast 225 259 9,000 -724 Descending Atlanta Center
Fri 08:17:03 PM 35.2864 -80.8381 47° Northeast 214 246 8,100 -836 Descending Atlanta Center
Fri 08:18:04 PM 35.3225 -80.7881 48° Northeast 211 243 7,300 -985 Descending Atlanta Center
Fri 08:19:17 PM 35.3586 -80.7281 54° Northeast 199 229 5,900 -1,329 Descending Atlanta Center
Fri 08:20:24 PM 35.3753 -80.6536 75° East 194 223 4,200 -1,596 Descending Atlanta Center
Fri 08:21:06 PM 35.3931 -80.6122 62° Northeast 200 230 3,000 -699 Descending Atlanta Center
Fri 08:22:07 PM 35.4389 -80.6128 359° North 158 182 3,000  Level Atlanta Center
Fri 08:23:14 PM 35.4808 -80.6239 348° North 146 168 3,000  Level Atlanta Center
Fri 08:24:15 PM 35.4906 -80.6692 285° West 117 135 3,000 -234 Level Atlanta Center
Fri 08:25:22 PM 35.4703 -80.6906 221° Southwest 100 115 2,500 -689 Descending Atlanta Center
Fri 08:26:17 PM 35.4414 -80.6994 194° South 112 129 1,600 -716 Descending Atlanta Center
Fri 08:27:11 PM 35.4142 -80.7031 186° South 103 119 1,200 -198 Descending Atlanta Center
Fri 08:28:18 PM 35.4039 -80.7061 194° South 103 119 1,200  Level Atlanta Center
Fri 08:30:20 PM 35.4039 -80.7061 219° Southwest 103 119 1,200  Level Atlanta Center

Login

Don't have an account? Register now (free) for customized features, flight alerts, and more!